Delta Poseidon — SVBF6 — position and weather

sailwx.info

Track history (hours):
 
Tides and Currents Weather Stations Pressure Air Temp Water Temp Dewpoint Dewpoint Depression Visibility Wind Speed Wind Dir Waves Ship Positions

Delta Poseidon

Last reported at 2014-Sep-23 11:33 UTC. Time now 2014-Oct-24 18:02 UTC.
Position N 50°18' W 001°16'.
Warning: this ship's position is 31 days out of date.

Length 274 m; draft 9 m.

Type: Tanker. MMSI: 241086000.

Date/timePositionNaut miles runAvg speedWind from/ knotsBaromVisibWave heightAir tempDewpointWater temp
2014-Sep-23 11:33N 50°18' W 001°16'1410.0
2014-Sep-23 10:06N 50°22' W 000°54'5 9.6
2014-Sep-23 09:33N 50°24' W 000°47'9 8.7
2014-Sep-23 08:33N 50°26' W 000°33'12 8.9
2014-Sep-23 07:13N 50°29' W 000°16'7 9.1
2014-Sep-23 06:25N 50°31' W 000°05'8 9.2
2014-Sep-23 05:32N 50°33' E 000°08'9 9.5
2014-Sep-23 04:33N 50°36' E 000°22'11 9.8
2014-Sep-23 03:24N 50°40' E 000°38'9 9.6
2014-Sep-23 02:30N 50°45' E 000°50'19 9.6
2014-Sep-23 00:33N 50°56' E 001°13'9 9.4
2014-Sep-22 23:33N 51°03' E 001°24'9 8.8
2014-Sep-22 22:33N 51°08' E 001°35'8 8.4
2014-Sep-22 21:34N 51°14' E 001°45'9 9.4
2014-Sep-22 20:33N 51°22' E 001°51'1110.7
2014-Sep-22 19:33N 51°31' E 002°01'1110.8
2014-Sep-22 18:33N 51°39' E 002°13'1010.4
2014-Sep-22 17:33N 51°47' E 002°24'23 9.1
2014-Sep-22 15:03N 52°05' E 002°46'0 0.0
2014-Sep-22 14:09N 52°05' E 002°46'0 0.0
2014-Sep-22 13:27N 52°05' E 002°46'0 0.0
2014-Sep-22 04:03N 52°05' E 002°46'0 0.2
2014-Sep-22 02:07N 52°05' E 002°47'6 7.0
2014-Sep-22 01:16N 52°03' E 002°56'710.1
2014-Sep-22 00:33N 52°03' E 003°08'10 9.7
2014-Sep-21 23:33N 52°03' E 003°23'1010.0
2014-Sep-21 22:33N 52°03' E 003°40'10 9.8
2014-Sep-21 21:33N 52°02' E 003°55'7 6.6
2014-Sep-21 20:33N 51°58' E 004°04'0 0.0
2014-Sep-21 19:28N 51°58' E 004°04'0 0.0
2014-Sep-21 18:31N 51°58' E 004°04'0 0.0
2014-Sep-21 17:25N 51°58' E 004°04'0 0.0
2014-Sep-21 16:31N 51°58' E 004°04'0 0.0
2014-Sep-21 15:31N 51°58' E 004°04'0 0.0
2014-Sep-21 14:31N 51°58' E 004°04'0 0.0
2014-Sep-21 13:28N 51°58' E 004°04'0 0.0
2014-Sep-21 12:31N 51°58' E 004°04'0 0.0
2014-Sep-21 11:31N 51°58' E 004°04'0 0.0
2014-Sep-21 10:31N 51°58' E 004°04'0 0.0
2014-Sep-21 09:31N 51°58' E 004°04'0 0.0
2014-Sep-21 08:25N 51°58' E 004°04'0 0.0
2014-Sep-21 07:31N 51°58' E 004°04'0 0.0
2014-Sep-21 06:31N 51°58' E 004°04'0 0.0
2014-Sep-21 05:28N 51°58' E 004°04'0 0.0
2014-Sep-21 04:31N 51°58' E 004°04'0 0.0
2014-Sep-21 03:31N 51°58' E 004°04'0 0.0
2014-Sep-21 02:31N 51°58' E 004°04'0 0.0
2014-Sep-21 01:28N 51°58' E 004°04'0 0.0
2014-Sep-21 00:31N 51°58' E 004°04'0 0.0
2014-Sep-20 23:31N 51°58' E 004°04'1 1.3
2014-Sep-20 22:34N 51°58' E 004°06'2 2.1
2014-Sep-20 21:33N 51°57' E 004°09'3 2.1
2014-Sep-20 20:16N 51°55' E 004°12'0 0.0
2014-Sep-20 19:16N 51°55' E 004°12'0 0.0
2014-Sep-20 18:28N 51°55' E 004°12'0 0.0
2014-Sep-20 17:31N 51°55' E 004°12'0 0.0
2014-Sep-20 16:31N 51°55' E 004°12'0 0.0
2014-Sep-20 15:25N 51°55' E 004°12'0 0.0
2014-Sep-20 14:31N 51°55' E 004°12'0 0.0
2014-Sep-20 13:28N 51°55' E 004°12'0 0.0
2014-Sep-20 12:31N 51°55' E 004°12'0 0.0
2014-Sep-20 11:19N 51°55' E 004°12'0 0.5
2014-Sep-20 10:33N 51°56' E 004°12'5 5.0
2014-Sep-20 09:33N 51°59' E 004°05'8 8.0
2014-Sep-20 08:33N 52°02' E 003°53'8 8.1
2014-Sep-20 07:33N 52°01' E 003°40'9 9.0
2014-Sep-20 06:33N 51°59' E 003°26'9 8.7
2014-Sep-20 05:33N 51°58' E 003°12'16 7.5
2014-Sep-20 03:29N 51°54' E 002°48'6 5.8
2014-Sep-20 02:26N 51°50' E 002°41'6 6.3
2014-Sep-20 01:31N 51°45' E 002°35'1212.6
2014-Sep-20 00:32N 51°36' E 002°23'6 5.6
2014-Sep-19 23:33N 51°32' E 002°16'10 9.8
2014-Sep-19 22:33N 51°25' E 002°05'1010.4
2014-Sep-19 21:33N 51°17' E 001°54'1111.1
2014-Sep-19 20:33N 51°09' E 001°43'1211.8
2014-Sep-19 19:34N 50°60' E 001°31'1110.6
2014-Sep-19 18:33N 50°50' E 001°24'1110.9
2014-Sep-19 17:34N 50°40' E 001°17'1110.6
2014-Sep-19 16:33N 50°33' E 001°05'1110.5
2014-Sep-19 15:33N 50°28' E 000°50'1110.4
2014-Sep-19 14:29N 50°25' E 000°33'1010.3
2014-Sep-19 13:33N 50°22' E 000°18'1010.4
2014-Sep-19 12:33N 50°20' E 000°03'1110.2
2014-Sep-19 11:31N 50°17' W 000°13'2310.0
2014-Sep-19 09:15N 50°11' W 000°48'8 9.6
2014-Sep-19 08:27N 50°09' W 000°59'1110.0
2014-Sep-19 07:19N 50°06' W 001°16'  
Track history (hours):
 
Tides and Currents Weather Stations Pressure Air Temp Water Temp Dewpoint Dewpoint Depression Visibility Wind Speed Wind Dir Waves Ship Positions

Delta Poseidon

Last reported at 2014-Sep-23 11:33 UTC. Time now 2014-Oct-24 18:02 UTC.
Position N 50°18' W 001°16'.
Warning: this ship's position is 31 days out of date.

Length 274 m; draft 9 m.

Type: Tanker. MMSI: 241086000.

Date/timePositionNaut miles runAvg speedWind from/ knotsBaromVisibWave heightAir tempDewpointWater temp
2014-Sep-23 11:33N 50°18' W 001°16'1410.0
2014-Sep-23 10:06N 50°22' W 000°54'5 9.6
2014-Sep-23 09:33N 50°24' W 000°47'9 8.7
2014-Sep-23 08:33N 50°26' W 000°33'12 8.9
2014-Sep-23 07:13N 50°29' W 000°16'7 9.1
2014-Sep-23 06:25N 50°31' W 000°05'8 9.2
2014-Sep-23 05:32N 50°33' E 000°08'9 9.5
2014-Sep-23 04:33N 50°36' E 000°22'11 9.8
2014-Sep-23 03:24N 50°40' E 000°38'9 9.6
2014-Sep-23 02:30N 50°45' E 000°50'19 9.6
2014-Sep-23 00:33N 50°56' E 001°13'9 9.4
2014-Sep-22 23:33N 51°03' E 001°24'9 8.8
2014-Sep-22 22:33N 51°08' E 001°35'8 8.4
2014-Sep-22 21:34N 51°14' E 001°45'9 9.4
2014-Sep-22 20:33N 51°22' E 001°51'1110.7
2014-Sep-22 19:33N 51°31' E 002°01'1110.8
2014-Sep-22 18:33N 51°39' E 002°13'1010.4
2014-Sep-22 17:33N 51°47' E 002°24'23 9.1
2014-Sep-22 15:03N 52°05' E 002°46'0 0.0
2014-Sep-22 14:09N 52°05' E 002°46'0 0.0
2014-Sep-22 13:27N 52°05' E 002°46'0 0.0
2014-Sep-22 04:03N 52°05' E 002°46'0 0.2
2014-Sep-22 02:07N 52°05' E 002°47'6 7.0
2014-Sep-22 01:16N 52°03' E 002°56'710.1
2014-Sep-22 00:33N 52°03' E 003°08'10 9.7
2014-Sep-21 23:33N 52°03' E 003°23'1010.0
2014-Sep-21 22:33N 52°03' E 003°40'10 9.8
2014-Sep-21 21:33N 52°02' E 003°55'7 6.6
2014-Sep-21 20:33N 51°58' E 004°04'0 0.0
2014-Sep-21 19:28N 51°58' E 004°04'0 0.0
2014-Sep-21 18:31N 51°58' E 004°04'0 0.0
2014-Sep-21 17:25N 51°58' E 004°04'0 0.0
2014-Sep-21 16:31N 51°58' E 004°04'0 0.0
2014-Sep-21 15:31N 51°58' E 004°04'0 0.0
2014-Sep-21 14:31N 51°58' E 004°04'0 0.0
2014-Sep-21 13:28N 51°58' E 004°04'0 0.0
2014-Sep-21 12:31N 51°58' E 004°04'0 0.0
2014-Sep-21 11:31N 51°58' E 004°04'0 0.0
2014-Sep-21 10:31N 51°58' E 004°04'0 0.0
2014-Sep-21 09:31N 51°58' E 004°04'0 0.0
2014-Sep-21 08:25N 51°58' E 004°04'0 0.0
2014-Sep-21 07:31N 51°58' E 004°04'0 0.0
2014-Sep-21 06:31N 51°58' E 004°04'0 0.0
2014-Sep-21 05:28N 51°58' E 004°04'0 0.0
2014-Sep-21 04:31N 51°58' E 004°04'0 0.0
2014-Sep-21 03:31N 51°58' E 004°04'0 0.0
2014-Sep-21 02:31N 51°58' E 004°04'0 0.0
2014-Sep-21 01:28N 51°58' E 004°04'0 0.0
2014-Sep-21 00:31N 51°58' E 004°04'0 0.0
2014-Sep-20 23:31N 51°58' E 004°04'1 1.3
2014-Sep-20 22:34N 51°58' E 004°06'2 2.1
2014-Sep-20 21:33N 51°57' E 004°09'3 2.1
2014-Sep-20 20:16N 51°55' E 004°12'0 0.0
2014-Sep-20 19:16N 51°55' E 004°12'0 0.0
2014-Sep-20 18:28N 51°55' E 004°12'0 0.0
2014-Sep-20 17:31N 51°55' E 004°12'0 0.0
2014-Sep-20 16:31N 51°55' E 004°12'0 0.0
2014-Sep-20 15:25N 51°55' E 004°12'0 0.0
2014-Sep-20 14:31N 51°55' E 004°12'0 0.0
2014-Sep-20 13:28N 51°55' E 004°12'0 0.0
2014-Sep-20 12:31N 51°55' E 004°12'0 0.0
2014-Sep-20 11:19N 51°55' E 004°12'0 0.5
2014-Sep-20 10:33N 51°56' E 004°12'5 5.0
2014-Sep-20 09:33N 51°59' E 004°05'8 8.0
2014-Sep-20 08:33N 52°02' E 003°53'8 8.1
2014-Sep-20 07:33N 52°01' E 003°40'9 9.0
2014-Sep-20 06:33N 51°59' E 003°26'9 8.7
2014-Sep-20 05:33N 51°58' E 003°12'16 7.5
2014-Sep-20 03:29N 51°54' E 002°48'6 5.8
2014-Sep-20 02:26N 51°50' E 002°41'6 6.3
2014-Sep-20 01:31N 51°45' E 002°35'1212.6
2014-Sep-20 00:32N 51°36' E 002°23'6 5.6
2014-Sep-19 23:33N 51°32' E 002°16'10 9.8
2014-Sep-19 22:33N 51°25' E 002°05'1010.4
2014-Sep-19 21:33N 51°17' E 001°54'1111.1
2014-Sep-19 20:33N 51°09' E 001°43'1211.8
2014-Sep-19 19:34N 50°60' E 001°31'1110.6
2014-Sep-19 18:33N 50°50' E 001°24'1110.9
2014-Sep-19 17:34N 50°40' E 001°17'1110.6
2014-Sep-19 16:33N 50°33' E 001°05'1110.5
2014-Sep-19 15:33N 50°28' E 000°50'1110.4
2014-Sep-19 14:29N 50°25' E 000°33'1010.3
2014-Sep-19 13:33N 50°22' E 000°18'1010.4
2014-Sep-19 12:33N 50°20' E 000°03'1110.2
2014-Sep-19 11:31N 50°17' W 000°13'2310.0
2014-Sep-19 09:15N 50°11' W 000°48'8 9.6
2014-Sep-19 08:27N 50°09' W 000°59'1110.0
2014-Sep-19 07:19N 50°06' W 001°16'  

Dump ship's entire track history